sensor_id;sensor_type;location;lat;lon;timestamp;P1;durP1;ratioP1;P2;durP2;ratioP2
5299;SDS011;70402;42.670;23.258;2024-02-26T00:00:42;12.20;;;5.67;;
5299;SDS011;70402;42.670;23.258;2024-02-26T00:03:09;9.27;;;5.17;;
5299;SDS011;70402;42.670;23.258;2024-02-26T00:05:35;8.50;;;4.87;;
5299;SDS011;70402;42.670;23.258;2024-02-26T00:08:03;7.73;;;5.40;;
5299;SDS011;70402;42.670;23.258;2024-02-26T00:10:29;8.37;;;5.27;;
5299;SDS011;70402;42.670;23.258;2024-02-26T00:12:55;12.70;;;6.30;;
5299;SDS011;70402;42.670;23.258;2024-02-26T00:15:21;10.33;;;5.37;;
5299;SDS011;70402;42.670;23.258;2024-02-26T00:17:48;11.27;;;6.30;;
5299;SDS011;70402;42.670;23.258;2024-02-26T00:20:14;11.73;;;6.57;;
5299;SDS011;70402;42.670;23.258;2024-02-26T00:22:40;17.33;;;7.40;;
5299;SDS011;70402;42.670;23.258;2024-02-26T00:25:06;14.73;;;6.87;;
5299;SDS011;70402;42.670;23.258;2024-02-26T00:27:32;10.10;;;6.50;;
5299;SDS011;70402;42.670;23.258;2024-02-26T00:29:59;9.10;;;5.93;;
5299;SDS011;70402;42.670;23.258;2024-02-26T00:32:25;9.40;;;4.77;;
5299;SDS011;70402;42.670;23.258;2024-02-26T00:34:51;9.30;;;6.17;;
5299;SDS011;70402;42.670;23.258;2024-02-26T00:37:18;11.77;;;5.70;;
5299;SDS011;70402;42.670;23.258;2024-02-26T00:39:44;9.77;;;6.07;;
5299;SDS011;70402;42.670;23.258;2024-02-26T00:42:11;12.33;;;6.17;;
5299;SDS011;70402;42.670;23.258;2024-02-26T00:44:38;10.60;;;5.80;;
5299;SDS011;70402;42.670;23.258;2024-02-26T00:47:04;10.67;;;6.87;;
5299;SDS011;70402;42.670;23.258;2024-02-26T00:49:30;12.83;;;6.50;;
5299;SDS011;70402;42.670;23.258;2024-02-26T00:51:56;10.10;;;6.10;;
5299;SDS011;70402;42.670;23.258;2024-02-26T00:54:23;10.90;;;5.87;;
5299;SDS011;70402;42.670;23.258;2024-02-26T00:56:49;9.57;;;5.80;;
5299;SDS011;70402;42.670;23.258;2024-02-26T00:59:15;12.37;;;7.10;;
5299;SDS011;70402;42.670;23.258;2024-02-26T01:01:41;11.60;;;7.07;;
5299;SDS011;70402;42.670;23.258;2024-02-26T01:04:07;11.17;;;5.80;;
5299;SDS011;70402;42.670;23.258;2024-02-26T01:06:34;9.50;;;6.20;;
5299;SDS011;70402;42.670;23.258;2024-02-26T01:09:00;10.47;;;6.60;;
5299;SDS011;70402;42.670;23.258;2024-02-26T01:11:26;14.70;;;7.90;;
5299;SDS011;70402;42.670;23.258;2024-02-26T01:13:52;14.17;;;7.73;;
5299;SDS011;70402;42.670;23.258;2024-02-26T01:16:22;14.73;;;7.60;;
5299;SDS011;70402;42.670;23.258;2024-02-26T01:18:48;12.10;;;7.60;;
5299;SDS011;70402;42.670;23.258;2024-02-26T01:21:15;17.10;;;9.47;;
5299;SDS011;70402;42.670;23.258;2024-02-26T01:23:41;13.47;;;8.30;;
5299;SDS011;70402;42.670;23.258;2024-02-26T01:26:07;16.00;;;8.07;;
5299;SDS011;70402;42.670;23.258;2024-02-26T01:28:33;11.73;;;6.93;;
5299;SDS011;70402;42.670;23.258;2024-02-26T01:30:59;18.47;;;8.73;;
5299;SDS011;70402;42.670;23.258;2024-02-26T01:33:26;16.37;;;9.53;;
5299;SDS011;70402;42.670;23.258;2024-02-26T01:35:52;14.57;;;8.43;;
5299;SDS011;70402;42.670;23.258;2024-02-26T01:38:18;19.50;;;9.53;;
5299;SDS011;70402;42.670;23.258;2024-02-26T01:40:45;16.17;;;9.60;;
5299;SDS011;70402;42.670;23.258;2024-02-26T01:43:11;17.23;;;9.17;;
5299;SDS011;70402;42.670;23.258;2024-02-26T01:45:37;20.30;;;10.47;;
5299;SDS011;70402;42.670;23.258;2024-02-26T01:48:03;21.00;;;9.90;;
5299;SDS011;70402;42.670;23.258;2024-02-26T01:50:29;14.07;;;8.57;;
5299;SDS011;70402;42.670;23.258;2024-02-26T01:52:56;14.63;;;9.23;;
5299;SDS011;70402;42.670;23.258;2024-02-26T01:55:23;16.20;;;9.30;;
5299;SDS011;70402;42.670;23.258;2024-02-26T01:57:50;16.50;;;9.20;;
5299;SDS011;70402;42.670;23.258;2024-02-26T02:00:18;13.00;;;8.03;;
5299;SDS011;70402;42.670;23.258;2024-02-26T02:02:44;13.60;;;8.27;;
5299;SDS011;70402;42.670;23.258;2024-02-26T02:05:14;13.97;;;7.67;;
5299;SDS011;70402;42.670;23.258;2024-02-26T02:07:43;11.03;;;7.40;;
5299;SDS011;70402;42.670;23.258;2024-02-26T02:10:10;13.97;;;7.57;;
5299;SDS011;70402;42.670;23.258;2024-02-26T02:12:36;14.07;;;7.10;;
5299;SDS011;70402;42.670;23.258;2024-02-26T02:15:05;24.73;;;12.80;;
5299;SDS011;70402;42.670;23.258;2024-02-26T02:17:31;15.37;;;7.97;;
5299;SDS011;70402;42.670;23.258;2024-02-26T02:19:57;12.67;;;8.10;;
5299;SDS011;70402;42.670;23.258;2024-02-26T02:22:24;11.50;;;7.47;;
5299;SDS011;70402;42.670;23.258;2024-02-26T02:24:51;12.40;;;7.50;;
5299;SDS011;70402;42.670;23.258;2024-02-26T02:27:18;15.50;;;7.50;;
5299;SDS011;70402;42.670;23.258;2024-02-26T02:29:45;12.07;;;7.47;;
5299;SDS011;70402;42.670;23.258;2024-02-26T02:32:11;15.87;;;8.37;;
5299;SDS011;70402;42.670;23.258;2024-02-26T02:34:37;13.43;;;8.30;;
5299;SDS011;70402;42.670;23.258;2024-02-26T02:37:04;12.27;;;7.30;;
5299;SDS011;70402;42.670;23.258;2024-02-26T02:39:30;13.90;;;7.67;;
5299;SDS011;70402;42.670;23.258;2024-02-26T02:41:56;26.50;;;10.77;;
5299;SDS011;70402;42.670;23.258;2024-02-26T02:44:22;19.17;;;9.07;;
5299;SDS011;70402;42.670;23.258;2024-02-26T02:46:48;14.57;;;8.93;;
5299;SDS011;70402;42.670;23.258;2024-02-26T02:49:17;14.03;;;8.13;;
5299;SDS011;70402;42.670;23.258;2024-02-26T02:51:43;15.60;;;7.87;;
5299;SDS011;70402;42.670;23.258;2024-02-26T02:54:09;16.57;;;8.70;;
5299;SDS011;70402;42.670;23.258;2024-02-26T02:56:35;12.53;;;7.50;;
5299;SDS011;70402;42.670;23.258;2024-02-26T02:59:01;15.73;;;8.50;;
5299;SDS011;70402;42.670;23.258;2024-02-26T03:01:28;15.60;;;8.37;;
5299;SDS011;70402;42.670;23.258;2024-02-26T03:03:54;17.27;;;9.10;;
5299;SDS011;70402;42.670;23.258;2024-02-26T03:06:21;18.90;;;9.77;;
5299;SDS011;70402;42.670;23.258;2024-02-26T03:08:48;31.90;;;13.37;;
5299;SDS011;70402;42.670;23.258;2024-02-26T03:11:14;25.50;;;13.10;;
5299;SDS011;70402;42.670;23.258;2024-02-26T03:13:41;23.27;;;11.07;;
5299;SDS011;70402;42.670;23.258;2024-02-26T03:16:07;14.20;;;8.93;;
5299;SDS011;70402;42.670;23.258;2024-02-26T03:18:33;13.07;;;8.10;;
5299;SDS011;70402;42.670;23.258;2024-02-26T03:21:00;10.97;;;6.80;;
5299;SDS011;70402;42.670;23.258;2024-02-26T03:23:26;10.47;;;7.13;;
5299;SDS011;70402;42.670;23.258;2024-02-26T03:25:52;11.17;;;6.77;;
5299;SDS011;70402;42.670;23.258;2024-02-26T03:28:18;12.77;;;7.63;;
5299;SDS011;70402;42.670;23.258;2024-02-26T03:30:45;13.10;;;8.20;;
5299;SDS011;70402;42.670;23.258;2024-02-26T03:33:11;12.87;;;8.20;;
5299;SDS011;70402;42.670;23.258;2024-02-26T03:35:37;12.27;;;8.17;;
5299;SDS011;70402;42.670;23.258;2024-02-26T03:38:03;13.77;;;8.47;;
5299;SDS011;70402;42.670;23.258;2024-02-26T03:40:29;14.73;;;9.67;;
5299;SDS011;70402;42.670;23.258;2024-02-26T03:42:56;14.50;;;8.00;;
5299;SDS011;70402;42.670;23.258;2024-02-26T03:45:23;15.47;;;8.43;;
5299;SDS011;70402;42.670;23.258;2024-02-26T03:47:51;15.80;;;9.07;;
5299;SDS011;70402;42.670;23.258;2024-02-26T03:50:17;15.40;;;9.37;;
5299;SDS011;70402;42.670;23.258;2024-02-26T03:52:43;15.03;;;8.67;;
5299;SDS011;70402;42.670;23.258;2024-02-26T03:55:09;13.83;;;8.37;;
5299;SDS011;70402;42.670;23.258;2024-02-26T03:57:35;13.67;;;8.40;;
5299;SDS011;70402;42.670;23.258;2024-02-26T04:00:02;14.97;;;8.13;;
5299;SDS011;70402;42.670;23.258;2024-02-26T04:02:28;13.43;;;8.40;;
5299;SDS011;70402;42.670;23.258;2024-02-26T04:04:54;13.00;;;8.10;;
5299;SDS011;70402;42.670;23.258;2024-02-26T04:07:21;13.90;;;8.17;;
5299;SDS011;70402;42.670;23.258;2024-02-26T04:09:47;16.43;;;8.60;;
5299;SDS011;70402;42.670;23.258;2024-02-26T04:12:13;12.77;;;8.43;;
5299;SDS011;70402;42.670;23.258;2024-02-26T04:14:39;16.70;;;8.60;;
5299;SDS011;70402;42.670;23.258;2024-02-26T04:19:37;13.80;;;8.13;;
5299;SDS011;70402;42.670;23.258;2024-02-26T04:22:03;9.57;;;7.23;;
5299;SDS011;70402;42.670;23.258;2024-02-26T04:24:30;12.10;;;7.23;;
5299;SDS011;70402;42.670;23.258;2024-02-26T04:26:56;11.37;;;7.70;;
5299;SDS011;70402;42.670;23.258;2024-02-26T04:29:23;12.27;;;7.10;;
5299;SDS011;70402;42.670;23.258;2024-02-26T04:31:49;13.33;;;8.57;;
5299;SDS011;70402;42.670;23.258;2024-02-26T04:34:15;17.20;;;8.67;;
5299;SDS011;70402;42.670;23.258;2024-02-26T04:36:41;15.20;;;8.70;;
5299;SDS011;70402;42.670;23.258;2024-02-26T04:39:08;13.27;;;7.20;;
5299;SDS011;70402;42.670;23.258;2024-02-26T04:41:35;12.03;;;7.47;;
5299;SDS011;70402;42.670;23.258;2024-02-26T04:44:01;13.07;;;7.80;;
5299;SDS011;70402;42.670;23.258;2024-02-26T04:46:27;12.13;;;6.90;;
5299;SDS011;70402;42.670;23.258;2024-02-26T04:48:53;12.77;;;9.00;;
5299;SDS011;70402;42.670;23.258;2024-02-26T04:51:20;15.50;;;8.93;;
5299;SDS011;70402;42.670;23.258;2024-02-26T04:53:46;12.93;;;8.27;;
5299;SDS011;70402;42.670;23.258;2024-02-26T04:56:12;13.60;;;8.13;;
5299;SDS011;70402;42.670;23.258;2024-02-26T04:58:38;11.90;;;7.97;;
5299;SDS011;70402;42.670;23.258;2024-02-26T05:01:05;17.20;;;8.07;;
5299;SDS011;70402;42.670;23.258;2024-02-26T05:03:31;14.63;;;8.90;;
5299;SDS011;70402;42.670;23.258;2024-02-26T05:05:57;14.90;;;8.60;;
5299;SDS011;70402;42.670;23.258;2024-02-26T05:08:23;13.80;;;8.70;;
5299;SDS011;70402;42.670;23.258;2024-02-26T05:10:49;15.70;;;9.23;;
5299;SDS011;70402;42.670;23.258;2024-02-26T05:13:15;21.80;;;9.50;;
5299;SDS011;70402;42.670;23.258;2024-02-26T05:15:43;15.10;;;9.67;;
5299;SDS011;70402;42.670;23.258;2024-02-26T05:18:12;18.50;;;11.30;;
5299;SDS011;70402;42.670;23.258;2024-02-26T05:20:38;25.37;;;12.97;;
5299;SDS011;70402;42.670;23.258;2024-02-26T05:23:04;18.13;;;11.30;;
5299;SDS011;70402;42.670;23.258;2024-02-26T05:25:30;18.00;;;11.60;;
5299;SDS011;70402;42.670;23.258;2024-02-26T05:27:56;20.53;;;13.20;;
5299;SDS011;70402;42.670;23.258;2024-02-26T05:30:22;25.30;;;14.27;;
5299;SDS011;70402;42.670;23.258;2024-02-26T05:32:49;24.03;;;14.40;;
5299;SDS011;70402;42.670;23.258;2024-02-26T05:35:15;28.40;;;14.50;;
5299;SDS011;70402;42.670;23.258;2024-02-26T05:37:41;29.40;;;16.17;;
5299;SDS011;70402;42.670;23.258;2024-02-26T05:40:08;24.27;;;13.20;;
5299;SDS011;70402;42.670;23.258;2024-02-26T05:42:34;23.67;;;14.73;;
5299;SDS011;70402;42.670;23.258;2024-02-26T05:45:00;27.40;;;12.90;;
5299;SDS011;70402;42.670;23.258;2024-02-26T05:47:33;22.60;;;12.57;;
5299;SDS011;70402;42.670;23.258;2024-02-26T05:50:00;22.70;;;11.80;;
5299;SDS011;70402;42.670;23.258;2024-02-26T05:52:26;24.80;;;13.50;;
5299;SDS011;70402;42.670;23.258;2024-02-26T05:54:54;22.77;;;13.10;;
5299;SDS011;70402;42.670;23.258;2024-02-26T05:57:20;25.33;;;13.43;;
5299;SDS011;70402;42.670;23.258;2024-02-26T05:59:46;25.03;;;13.37;;
5299;SDS011;70402;42.670;23.258;2024-02-26T06:02:13;24.87;;;14.00;;
5299;SDS011;70402;42.670;23.258;2024-02-26T06:04:39;21.90;;;13.30;;
5299;SDS011;70402;42.670;23.258;2024-02-26T06:07:05;22.40;;;12.80;;
5299;SDS011;70402;42.670;23.258;2024-02-26T06:09:31;17.93;;;11.53;;
5299;SDS011;70402;42.670;23.258;2024-02-26T06:11:58;20.60;;;12.93;;
5299;SDS011;70402;42.670;23.258;2024-02-26T06:14:24;19.17;;;12.17;;
5299;SDS011;70402;42.670;23.258;2024-02-26T06:16:50;18.07;;;11.23;;
5299;SDS011;70402;42.670;23.258;2024-02-26T06:19:16;17.53;;;11.03;;
5299;SDS011;70402;42.670;23.258;2024-02-26T06:21:42;21.50;;;11.70;;
5299;SDS011;70402;42.670;23.258;2024-02-26T06:24:09;17.67;;;11.57;;
5299;SDS011;70402;42.670;23.258;2024-02-26T06:26:35;19.40;;;11.40;;
5299;SDS011;70402;42.670;23.258;2024-02-26T06:29:01;21.83;;;12.27;;
5299;SDS011;70402;42.670;23.258;2024-02-26T06:31:27;22.47;;;13.00;;
5299;SDS011;70402;42.670;23.258;2024-02-26T06:33:54;21.73;;;12.63;;
5299;SDS011;70402;42.670;23.258;2024-02-26T06:36:21;20.97;;;12.77;;
5299;SDS011;70402;42.670;23.258;2024-02-26T06:38:48;20.83;;;12.23;;
5299;SDS011;70402;42.670;23.258;2024-02-26T06:41:14;20.57;;;12.73;;
5299;SDS011;70402;42.670;23.258;2024-02-26T06:43:41;20.13;;;12.90;;
5299;SDS011;70402;42.670;23.258;2024-02-26T06:46:07;21.63;;;13.73;;
5299;SDS011;70402;42.670;23.258;2024-02-26T06:48:33;23.27;;;13.47;;
5299;SDS011;70402;42.670;23.258;2024-02-26T06:50:59;23.30;;;12.80;;
5299;SDS011;70402;42.670;23.258;2024-02-26T06:53:25;20.30;;;12.73;;
5299;SDS011;70402;42.670;23.258;2024-02-26T06:55:51;22.60;;;12.57;;
5299;SDS011;70402;42.670;23.258;2024-02-26T06:58:17;20.90;;;12.73;;
5299;SDS011;70402;42.670;23.258;2024-02-26T07:00:43;21.07;;;12.57;;
5299;SDS011;70402;42.670;23.258;2024-02-26T07:03:09;23.47;;;14.63;;
5299;SDS011;70402;42.670;23.258;2024-02-26T07:05:36;24.27;;;13.40;;
5299;SDS011;70402;42.670;23.258;2024-02-26T07:08:02;24.47;;;13.70;;
5299;SDS011;70402;42.670;23.258;2024-02-26T07:10:28;20.13;;;12.80;;
5299;SDS011;70402;42.670;23.258;2024-02-26T07:12:54;22.80;;;14.90;;
5299;SDS011;70402;42.670;23.258;2024-02-26T07:15:20;23.07;;;14.20;;
5299;SDS011;70402;42.670;23.258;2024-02-26T07:17:46;25.23;;;13.70;;
5299;SDS011;70402;42.670;23.258;2024-02-26T07:20:14;23.77;;;14.40;;
5299;SDS011;70402;42.670;23.258;2024-02-26T07:22:40;30.40;;;15.80;;
5299;SDS011;70402;42.670;23.258;2024-02-26T07:25:07;26.20;;;15.10;;
5299;SDS011;70402;42.670;23.258;2024-02-26T07:27:37;25.50;;;13.00;;
5299;SDS011;70402;42.670;23.258;2024-02-26T07:30:03;24.40;;;13.33;;
5299;SDS011;70402;42.670;23.258;2024-02-26T07:32:29;35.00;;;14.50;;
5299;SDS011;70402;42.670;23.258;2024-02-26T07:34:55;28.60;;;15.10;;
5299;SDS011;70402;42.670;23.258;2024-02-26T07:37:21;22.97;;;14.20;;
5299;SDS011;70402;42.670;23.258;2024-02-26T07:39:48;19.33;;;12.90;;
5299;SDS011;70402;42.670;23.258;2024-02-26T07:42:14;23.77;;;15.77;;
5299;SDS011;70402;42.670;23.258;2024-02-26T07:44:40;25.63;;;15.40;;
5299;SDS011;70402;42.670;23.258;2024-02-26T07:47:08;25.07;;;15.27;;
5299;SDS011;70402;42.670;23.258;2024-02-26T07:49:34;27.50;;;14.97;;
5299;SDS011;70402;42.670;23.258;2024-02-26T07:52:00;21.47;;;13.43;;
5299;SDS011;70402;42.670;23.258;2024-02-26T07:54:27;32.80;;;14.97;;
5299;SDS011;70402;42.670;23.258;2024-02-26T07:56:53;20.57;;;12.43;;
5299;SDS011;70402;42.670;23.258;2024-02-26T07:59:19;31.47;;;16.13;;
5299;SDS011;70402;42.670;23.258;2024-02-26T08:01:49;27.23;;;15.30;;
5299;SDS011;70402;42.670;23.258;2024-02-26T08:04:15;26.30;;;14.63;;
5299;SDS011;70402;42.670;23.258;2024-02-26T08:06:41;25.20;;;15.20;;
5299;SDS011;70402;42.670;23.258;2024-02-26T08:09:08;19.37;;;13.50;;
5299;SDS011;70402;42.670;23.258;2024-02-26T08:11:34;29.60;;;14.20;;
5299;SDS011;70402;42.670;23.258;2024-02-26T08:14:00;22.87;;;13.90;;
5299;SDS011;70402;42.670;23.258;2024-02-26T08:16:26;26.67;;;14.40;;
5299;SDS011;70402;42.670;23.258;2024-02-26T08:18:53;23.00;;;14.60;;
5299;SDS011;70402;42.670;23.258;2024-02-26T08:21:19;30.83;;;15.70;;
5299;SDS011;70402;42.670;23.258;2024-02-26T08:23:45;29.37;;;15.90;;
5299;SDS011;70402;42.670;23.258;2024-02-26T08:26:11;36.90;;;14.70;;
5299;SDS011;70402;42.670;23.258;2024-02-26T08:28:37;27.60;;;15.30;;
5299;SDS011;70402;42.670;23.258;2024-02-26T08:31:04;30.13;;;15.40;;
5299;SDS011;70402;42.670;23.258;2024-02-26T08:33:30;22.80;;;15.30;;
5299;SDS011;70402;42.670;23.258;2024-02-26T08:35:56;24.43;;;15.03;;
5299;SDS011;70402;42.670;23.258;2024-02-26T08:38:23;27.47;;;16.50;;
5299;SDS011;70402;42.670;23.258;2024-02-26T08:40:49;24.00;;;15.07;;
5299;SDS011;70402;42.670;23.258;2024-02-26T08:43:15;22.60;;;15.63;;
5299;SDS011;70402;42.670;23.258;2024-02-26T08:45:41;25.53;;;15.67;;
5299;SDS011;70402;42.670;23.258;2024-02-26T08:48:07;33.73;;;17.70;;
5299;SDS011;70402;42.670;23.258;2024-02-26T08:50:34;22.57;;;15.37;;
5299;SDS011;70402;42.670;23.258;2024-02-26T08:53:00;23.73;;;15.80;;
5299;SDS011;70402;42.670;23.258;2024-02-26T08:55:26;25.43;;;15.40;;
5299;SDS011;70402;42.670;23.258;2024-02-26T08:57:52;23.90;;;15.07;;
5299;SDS011;70402;42.670;23.258;2024-02-26T09:00:19;23.27;;;14.40;;
5299;SDS011;70402;42.670;23.258;2024-02-26T09:02:45;25.97;;;15.10;;
5299;SDS011;70402;42.670;23.258;2024-02-26T09:05:12;27.03;;;13.87;;
5299;SDS011;70402;42.670;23.258;2024-02-26T09:07:38;20.30;;;13.20;;
5299;SDS011;70402;42.670;23.258;2024-02-26T09:10:05;24.73;;;14.63;;
5299;SDS011;70402;42.670;23.258;2024-02-26T09:12:33;22.37;;;13.77;;
5299;SDS011;70402;42.670;23.258;2024-02-26T09:14:59;19.70;;;12.50;;
5299;SDS011;70402;42.670;23.258;2024-02-26T09:17:25;24.20;;;13.23;;
5299;SDS011;70402;42.670;23.258;2024-02-26T09:19:51;25.03;;;15.13;;
5299;SDS011;70402;42.670;23.258;2024-02-26T09:22:18;21.87;;;14.43;;
5299;SDS011;70402;42.670;23.258;2024-02-26T09:24:44;30.53;;;15.00;;
5299;SDS011;70402;42.670;23.258;2024-02-26T09:27:10;23.70;;;12.20;;
5299;SDS011;70402;42.670;23.258;2024-02-26T09:29:36;22.37;;;12.77;;
5299;SDS011;70402;42.670;23.258;2024-02-26T09:32:02;26.37;;;14.23;;
5299;SDS011;70402;42.670;23.258;2024-02-26T09:34:28;25.33;;;13.67;;
5299;SDS011;70402;42.670;23.258;2024-02-26T09:36:54;23.83;;;13.07;;
5299;SDS011;70402;42.670;23.258;2024-02-26T09:39:20;20.67;;;12.13;;
5299;SDS011;70402;42.670;23.258;2024-02-26T09:41:47;17.50;;;11.20;;
5299;SDS011;70402;42.670;23.258;2024-02-26T09:44:18;19.40;;;11.90;;
5299;SDS011;70402;42.670;23.258;2024-02-26T09:46:47;25.97;;;12.67;;
5299;SDS011;70402;42.670;23.258;2024-02-26T09:49:15;23.00;;;11.90;;
5299;SDS011;70402;42.670;23.258;2024-02-26T09:51:42;22.90;;;13.17;;
5299;SDS011;70402;42.670;23.258;2024-02-26T09:54:09;26.83;;;11.50;;
5299;SDS011;70402;42.670;23.258;2024-02-26T09:56:37;16.60;;;9.97;;
5299;SDS011;70402;42.670;23.258;2024-02-26T09:59:05;16.77;;;9.90;;
5299;SDS011;70402;42.670;23.258;2024-02-26T10:01:32;14.73;;;9.93;;
5299;SDS011;70402;42.670;23.258;2024-02-26T10:03:59;11.93;;;7.30;;
5299;SDS011;70402;42.670;23.258;2024-02-26T10:06:26;8.10;;;6.00;;
5299;SDS011;70402;42.670;23.258;2024-02-26T10:08:53;8.83;;;3.80;;
5299;SDS011;70402;42.670;23.258;2024-02-26T10:11:19;10.93;;;4.10;;
5299;SDS011;70402;42.670;23.258;2024-02-26T10:13:46;6.00;;;3.40;;
5299;SDS011;70402;42.670;23.258;2024-02-26T10:16:12;7.20;;;3.97;;
5299;SDS011;70402;42.670;23.258;2024-02-26T10:18:48;5.70;;;4.00;;
5299;SDS011;70402;42.670;23.258;2024-02-26T10:21:17;5.57;;;3.27;;
5299;SDS011;70402;42.670;23.258;2024-02-26T10:23:44;5.67;;;3.80;;
5299;SDS011;70402;42.670;23.258;2024-02-26T10:26:11;6.20;;;3.20;;
5299;SDS011;70402;42.670;23.258;2024-02-26T10:28:38;7.00;;;3.10;;
5299;SDS011;70402;42.670;23.258;2024-02-26T10:31:05;6.37;;;3.50;;
5299;SDS011;70402;42.670;23.258;2024-02-26T10:33:34;4.47;;;3.30;;
5299;SDS011;70402;42.670;23.258;2024-02-26T10:36:02;4.93;;;3.43;;
5299;SDS011;70402;42.670;23.258;2024-02-26T10:38:29;8.10;;;3.40;;
5299;SDS011;70402;42.670;23.258;2024-02-26T10:40:55;3.70;;;3.20;;
5299;SDS011;70402;42.670;23.258;2024-02-26T10:43:21;5.27;;;3.57;;
5299;SDS011;70402;42.670;23.258;2024-02-26T10:45:47;6.10;;;3.57;;
5299;SDS011;70402;42.670;23.258;2024-02-26T10:48:14;4.13;;;3.27;;
5299;SDS011;70402;42.670;23.258;2024-02-26T10:50:41;6.30;;;4.07;;
5299;SDS011;70402;42.670;23.258;2024-02-26T10:53:12;5.73;;;3.47;;
5299;SDS011;70402;42.670;23.258;2024-02-26T10:55:40;5.70;;;4.07;;
5299;SDS011;70402;42.670;23.258;2024-02-26T10:58:07;4.90;;;3.10;;
5299;SDS011;70402;42.670;23.258;2024-02-26T11:00:34;3.90;;;2.73;;
5299;SDS011;70402;42.670;23.258;2024-02-26T11:03:01;5.70;;;3.50;;
5299;SDS011;70402;42.670;23.258;2024-02-26T11:05:28;7.93;;;3.93;;
5299;SDS011;70402;42.670;23.258;2024-02-26T11:07:55;4.67;;;3.30;;
5299;SDS011;70402;42.670;23.258;2024-02-26T11:10:22;5.80;;;3.30;;
5299;SDS011;70402;42.670;23.258;2024-02-26T11:12:48;4.60;;;3.10;;
5299;SDS011;70402;42.670;23.258;2024-02-26T11:15:15;7.37;;;4.23;;
5299;SDS011;70402;42.670;23.258;2024-02-26T11:17:43;3.97;;;2.97;;
5299;SDS011;70402;42.670;23.258;2024-02-26T11:20:10;4.70;;;3.67;;
5299;SDS011;70402;42.670;23.258;2024-02-26T11:22:37;7.63;;;3.90;;
5299;SDS011;70402;42.670;23.258;2024-02-26T11:25:04;7.37;;;3.50;;
5299;SDS011;70402;42.670;23.258;2024-02-26T11:27:32;6.67;;;3.37;;
5299;SDS011;70402;42.670;23.258;2024-02-26T11:30:00;6.70;;;3.50;;
5299;SDS011;70402;42.670;23.258;2024-02-26T11:32:27;6.00;;;3.40;;
5299;SDS011;70402;42.670;23.258;2024-02-26T11:34:57;7.13;;;3.80;;
5299;SDS011;70402;42.670;23.258;2024-02-26T11:37:24;9.80;;;3.57;;
5299;SDS011;70402;42.670;23.258;2024-02-26T11:39:51;4.60;;;3.20;;
5299;SDS011;70402;42.670;23.258;2024-02-26T11:42:17;4.93;;;3.77;;
5299;SDS011;70402;42.670;23.258;2024-02-26T11:44:48;4.40;;;3.40;;
5299;SDS011;70402;42.670;23.258;2024-02-26T11:47:18;7.87;;;3.20;;
5299;SDS011;70402;42.670;23.258;2024-02-26T11:49:45;9.13;;;4.17;;
5299;SDS011;70402;42.670;23.258;2024-02-26T11:52:12;5.27;;;4.10;;
5299;SDS011;70402;42.670;23.258;2024-02-26T11:54:49;13.27;;;3.67;;
5299;SDS011;70402;42.670;23.258;2024-02-26T11:57:19;10.43;;;3.43;;
5299;SDS011;70402;42.670;23.258;2024-02-26T11:59:46;10.20;;;4.63;;
5299;SDS011;70402;42.670;23.258;2024-02-26T12:02:37;5.60;;;4.13;;
5299;SDS011;70402;42.670;23.258;2024-02-26T12:04:59;4.90;;;3.33;;
5299;SDS011;70402;42.670;23.258;2024-02-26T12:07:25;3.80;;;2.90;;
5299;SDS011;70402;42.670;23.258;2024-02-26T12:09:51;5.33;;;3.50;;
5299;SDS011;70402;42.670;23.258;2024-02-26T12:12:17;5.07;;;3.20;;
5299;SDS011;70402;42.670;23.258;2024-02-26T12:14:51;5.83;;;3.33;;
5299;SDS011;70402;42.670;23.258;2024-02-26T12:17:25;6.80;;;3.20;;
5299;SDS011;70402;42.670;23.258;2024-02-26T12:19:51;3.40;;;2.57;;
5299;SDS011;70402;42.670;23.258;2024-02-26T12:22:18;5.70;;;2.70;;
5299;SDS011;70402;42.670;23.258;2024-02-26T12:24:45;4.93;;;3.27;;
5299;SDS011;70402;42.670;23.258;2024-02-26T12:27:11;5.50;;;2.70;;
5299;SDS011;70402;42.670;23.258;2024-02-26T12:29:37;9.83;;;2.87;;
5299;SDS011;70402;42.670;23.258;2024-02-26T12:32:04;5.97;;;3.03;;
5299;SDS011;70402;42.670;23.258;2024-02-26T12:34:30;3.80;;;3.27;;
5299;SDS011;70402;42.670;23.258;2024-02-26T12:36:57;4.60;;;3.27;;
5299;SDS011;70402;42.670;23.258;2024-02-26T12:39:23;12.13;;;3.43;;
5299;SDS011;70402;42.670;23.258;2024-02-26T12:41:50;8.43;;;3.47;;
5299;SDS011;70402;42.670;23.258;2024-02-26T12:44:16;9.60;;;2.70;;
5299;SDS011;70402;42.670;23.258;2024-02-26T12:46:42;2.70;;;2.43;;
5299;SDS011;70402;42.670;23.258;2024-02-26T12:49:08;4.83;;;3.20;;
5299;SDS011;70402;42.670;23.258;2024-02-26T12:51:40;4.83;;;2.80;;
5299;SDS011;70402;42.670;23.258;2024-02-26T12:54:07;4.50;;;3.00;;
5299;SDS011;70402;42.670;23.258;2024-02-26T12:56:33;4.87;;;2.13;;
5299;SDS011;70402;42.670;23.258;2024-02-26T12:58:59;6.53;;;2.90;;
5299;SDS011;70402;42.670;23.258;2024-02-26T13:01:26;3.40;;;2.70;;
5299;SDS011;70402;42.670;23.258;2024-02-26T13:03:52;5.50;;;2.90;;
5299;SDS011;70402;42.670;23.258;2024-02-26T13:06:19;11.47;;;3.10;;
5299;SDS011;70402;42.670;23.258;2024-02-26T13:08:46;3.83;;;2.80;;
5299;SDS011;70402;42.670;23.258;2024-02-26T13:11:13;9.90;;;2.70;;
5299;SDS011;70402;42.670;23.258;2024-02-26T13:13:39;4.37;;;2.70;;
5299;SDS011;70402;42.670;23.258;2024-02-26T13:16:07;5.33;;;3.20;;
5299;SDS011;70402;42.670;23.258;2024-02-26T13:18:34;3.23;;;2.53;;
5299;SDS011;70402;42.670;23.258;2024-02-26T13:21:11;7.10;;;3.30;;
5299;SDS011;70402;42.670;23.258;2024-02-26T13:23:40;5.30;;;3.03;;
5299;SDS011;70402;42.670;23.258;2024-02-26T13:26:07;4.47;;;3.30;;
5299;SDS011;70402;42.670;23.258;2024-02-26T13:28:34;5.17;;;3.00;;
5299;SDS011;70402;42.670;23.258;2024-02-26T13:31:00;4.57;;;2.90;;
5299;SDS011;70402;42.670;23.258;2024-02-26T13:33:29;7.30;;;2.90;;
5299;SDS011;70402;42.670;23.258;2024-02-26T13:35:56;5.00;;;2.77;;
5299;SDS011;70402;42.670;23.258;2024-02-26T13:38:22;4.03;;;2.40;;
5299;SDS011;70402;42.670;23.258;2024-02-26T13:40:51;4.03;;;2.90;;
5299;SDS011;70402;42.670;23.258;2024-02-26T13:43:18;4.60;;;2.30;;
5299;SDS011;70402;42.670;23.258;2024-02-26T13:45:45;5.53;;;2.63;;
5299;SDS011;70402;42.670;23.258;2024-02-26T13:48:11;3.73;;;2.80;;
5299;SDS011;70402;42.670;23.258;2024-02-26T13:50:41;4.00;;;2.47;;
5299;SDS011;70402;42.670;23.258;2024-02-26T13:53:10;3.60;;;2.60;;
5299;SDS011;70402;42.670;23.258;2024-02-26T13:55:37;10.17;;;3.20;;
5299;SDS011;70402;42.670;23.258;2024-02-26T13:58:04;4.60;;;2.57;;
5299;SDS011;70402;42.670;23.258;2024-02-26T14:00:32;5.10;;;2.80;;
5299;SDS011;70402;42.670;23.258;2024-02-26T14:02:59;4.37;;;2.70;;
5299;SDS011;70402;42.670;23.258;2024-02-26T14:05:26;4.23;;;2.40;;
5299;SDS011;70402;42.670;23.258;2024-02-26T14:07:52;2.80;;;2.20;;
5299;SDS011;70402;42.670;23.258;2024-02-26T14:10:19;9.03;;;2.50;;
5299;SDS011;70402;42.670;23.258;2024-02-26T14:12:46;3.53;;;2.47;;
5299;SDS011;70402;42.670;23.258;2024-02-26T14:15:12;3.10;;;2.33;;
5299;SDS011;70402;42.670;23.258;2024-02-26T14:17:38;4.23;;;2.60;;
5299;SDS011;70402;42.670;23.258;2024-02-26T14:20:04;7.07;;;3.20;;
5299;SDS011;70402;42.670;23.258;2024-02-26T14:22:32;3.90;;;2.40;;
5299;SDS011;70402;42.670;23.258;2024-02-26T14:24:59;2.77;;;1.90;;
5299;SDS011;70402;42.670;23.258;2024-02-26T14:27:25;7.33;;;2.80;;
5299;SDS011;70402;42.670;23.258;2024-02-26T14:29:52;2.90;;;2.40;;
5299;SDS011;70402;42.670;23.258;2024-02-26T14:32:20;4.10;;;2.13;;